Time;durP1;ratioP1;P1;durP2;ratioP2;P2;SDS_P1;SDS_P2;PMS_P1;PMS_P2;Temp;Humidity;BMP_temperature;BMP_pressure;BME280_temperature;BME280_humidity;BME280_pressure;Samples;Min_cycle;Max_cycle;Signal;HPM_P1;HPM_P2
2022/02/23 00:01:52;;;;;;;22.73;16.23;;;;;;;5.93;97.25;94777.47;5094391;28;20443;-79
2022/02/23 00:04:19;;;;;;;20.83;17.47;;;;;;;5.75;98.33;94781.28;5092630;28;20420;-80
2022/02/23 00:06:46;;;;;;;25.00;18.37;;;;;;;5.78;99.14;94786.25;5094169;28;20440;-80
2022/02/23 00:09:13;;;;;;;21.80;16.33;;;;;;;5.72;98.37;94787.53;5094120;28;20872;-80
2022/02/23 00:11:39;;;;;;;20.53;16.70;;;;;;;5.72;98.40;94794.50;5093766;28;20895;-80
2022/02/23 00:14:06;;;;;;;22.27;17.07;;;;;;;5.72;99.62;94782.31;5093976;28;20449;-80
2022/02/23 00:16:33;;;;;;;24.63;18.40;;;;;;;5.77;98.93;94790.63;5093731;28;20455;-80
2022/02/23 00:19:02;;;;;;;23.67;17.30;;;;;;;5.59;98.53;94791.91;5094096;28;20451;-80
2022/02/23 00:21:28;;;;;;;27.30;17.93;;;;;;;5.68;99.08;94793.03;5058227;28;20441;-80
2022/02/23 00:23:55;;;;;;;22.73;16.83;;;;;;;5.60;99.76;94786.59;5093912;28;20440;-79
2022/02/23 00:26:22;;;;;;;25.90;19.27;;;;;;;5.58;100.00;94787.63;5093649;28;20450;-80
2022/02/23 00:28:49;;;;;;;29.37;18.73;;;;;;;5.68;100.00;94785.22;5058420;28;20436;-81
2022/02/23 00:31:16;;;;;;;26.37;18.27;;;;;;;5.66;99.76;94779.28;5093736;28;20962;-80
2022/02/23 00:33:43;;;;;;;26.20;16.97;;;;;;;5.71;99.40;94788.47;5058115;28;20479;-80
2022/02/23 00:36:11;;;;;;;21.73;16.30;;;;;;;5.83;99.67;94786.81;5093437;28;20440;-80
2022/02/23 00:38:38;;;;;;;24.27;17.67;;;;;;;5.92;99.73;94788.81;5093433;28;20440;-80
2022/02/23 00:41:05;;;;;;;23.43;17.23;;;;;;;5.94;98.83;94797.34;5093221;28;20439;-80
2022/02/23 00:43:32;;;;;;;23.30;17.70;;;;;;;5.95;97.23;94790.38;5041013;28;20479;-80
2022/02/23 00:45:58;;;;;;;23.67;19.10;;;;;;;6.03;97.31;94793.28;5093462;28;20460;-79
2022/02/23 00:48:25;;;;;;;23.20;17.23;;;;;;;6.09;97.21;94783.28;5093273;28;20436;-80
2022/02/23 00:50:52;;;;;;;22.20;16.63;;;;;;;6.09;96.86;94772.88;5093339;28;20444;-80
2022/02/23 00:53:21;;;;;;;28.30;20.67;;;;;;;6.23;95.64;94787.53;5092853;28;20484;-80
2022/02/23 00:55:48;;;;;;;23.13;18.63;;;;;;;6.30;96.18;94785.31;5093089;28;20454;-80
2022/02/23 00:58:15;;;;;;;23.20;19.60;;;;;;;6.23;95.60;94782.31;5093447;28;20462;-80
2022/02/23 01:00:42;;;;;;;23.33;17.60;;;;;;;6.26;94.90;94770.84;5093165;28;20444;-79
2022/02/23 01:03:09;;;;;;;20.67;17.30;;;;;;;6.01;95.09;94772.53;5093176;28;20448;-80
2022/02/23 01:05:36;;;;;;;21.90;16.90;;;;;;;5.83;95.42;94772.03;5092749;28;20455;-81
2022/02/23 01:08:03;;;;;;;24.20;17.77;;;;;;;5.69;96.71;94772.13;5092946;28;20447;-81
2022/02/23 01:10:32;;;;;;;24.30;18.73;;;;;;;5.58;97.95;94772.00;5040898;28;20444;-79
2022/02/23 01:12:59;;;;;;;24.60;17.20;;;;;;;5.65;98.39;94780.22;5092926;28;20486;-80
2022/02/23 01:15:26;;;;;;;26.10;17.70;;;;;;;5.63;98.98;94784.72;5093116;28;20459;-80
2022/02/23 01:17:53;;;;;;;25.00;18.63;;;;;;;5.65;98.88;94777.63;5092677;28;20454;-81
2022/02/23 01:20:20;;;;;;;24.43;18.70;;;;;;;5.72;98.12;94789.28;5092713;28;20460;-81
2022/02/23 01:22:47;;;;;;;23.10;18.60;;;;;;;5.77;97.83;94789.81;5092629;28;20527;-79
2022/02/23 01:25:14;;;;;;;24.93;18.00;;;;;;;5.75;97.78;94784.72;5092796;28;20519;-80
2022/02/23 01:27:42;;;;;;;27.67;18.20;;;;;;;5.79;97.27;94794.00;5092744;28;20452;-80
2022/02/23 01:30:10;;;;;;;23.47;17.90;;;;;;;5.78;96.79;94792.34;5056840;28;20443;-81
2022/02/23 01:32:37;;;;;;;22.83;18.07;;;;;;;5.78;97.02;94783.66;5092759;28;20833;-80
2022/02/23 01:35:04;;;;;;;23.03;17.23;;;;;;;5.84;97.12;94784.09;5092715;28;20439;-80
2022/02/23 01:37:31;;;;;;;23.37;18.87;;;;;;;5.96;97.27;94787.66;5056764;28;20440;-81
2022/02/23 01:39:58;;;;;;;23.70;19.50;;;;;;;5.93;96.79;94789.66;5092587;28;20452;-80
2022/02/23 01:42:25;;;;;;;27.20;18.83;;;;;;;5.89;96.13;94794.19;5092474;28;20480;-81
2022/02/23 01:44:53;;;;;;;25.80;19.40;;;;;;;5.79;96.53;94795.78;5092586;28;20497;-80
2022/02/23 01:47:20;;;;;;;22.83;17.93;;;;;;;5.72;96.57;94791.91;5092513;28;20792;-80
2022/02/23 01:49:47;;;;;;;26.40;18.50;;;;;;;5.73;97.46;94793.56;5092388;28;20447;-80
2022/02/23 01:52:14;;;;;;;23.90;17.50;;;;;;;5.79;96.78;94793.16;5092259;28;20861;-80
2022/02/23 01:54:42;;;;;;;23.90;19.10;;;;;;;5.73;96.43;94796.16;5092466;28;20478;-80
2022/02/23 01:57:09;;;;;;;23.73;16.90;;;;;;;5.70;96.97;94788.56;5092168;28;20448;-81
2022/02/23 01:59:36;;;;;;;24.03;16.50;;;;;;;5.76;97.68;94798.56;5092099;28;20444;-80
2022/02/23 02:02:05;;;;;;;24.20;16.53;;;;;;;5.76;96.83;94798.56;5092322;28;20443;-79
2022/02/23 02:04:33;;;;;;;23.83;17.33;;;;;;;5.79;96.52;94801.81;5092142;28;21021;-81
2022/02/23 02:07:00;;;;;;;22.80;16.23;;;;;;;5.71;95.25;94801.47;5096512;28;20467;-79
2022/02/23 02:09:27;;;;;;;25.37;18.70;;;;;;;5.66;96.59;94813.13;5096142;28;20448;-80
2022/02/23 02:11:53;;;;;;;22.57;17.27;;;;;;;5.57;96.58;94812.81;5043748;28;20436;-80
2022/02/23 02:14:20;;;;;;;20.30;16.83;;;;;;;5.62;97.07;94798.66;5097319;28;20471;-80
2022/02/23 02:16:47;;;;;;;26.10;18.43;;;;;;;5.72;97.40;94799.69;5097246;28;20475;-80
2022/02/23 02:19:16;;;;;;;22.63;18.33;;;;;;;5.74;96.60;94805.63;5097105;28;20435;-80
2022/02/23 02:21:55;;;;;;;22.67;15.97;;;;;;;5.75;95.61;94802.94;5096032;28;20943;-80
2022/02/23 02:24:23;;;;;;;22.33;16.23;;;;;;;5.68;95.19;94804.28;5096161;28;20459;-81
2022/02/23 02:26:50;;;;;;;21.70;16.83;;;;;;;5.74;95.45;94816.88;5096210;28;20440;-80
2022/02/23 02:29:17;;;;;;;24.40;16.30;;;;;;;5.66;95.48;94813.13;5095916;28;20997;-80
2022/02/23 02:31:44;;;;;;;22.57;17.07;;;;;;;5.67;95.44;94820.00;5096151;28;20544;-80
2022/02/23 02:34:11;;;;;;;22.87;17.60;;;;;;;5.69;95.34;94831.16;5060429;28;20480;-80
2022/02/23 02:36:38;;;;;;;22.17;16.53;;;;;;;5.77;96.14;94832.28;5096131;28;20914;-80
2022/02/23 02:39:07;;;;;;;20.53;15.53;;;;;;;5.75;95.25;94833.34;5095741;28;20927;-80
2022/02/23 02:41:34;;;;;;;22.67;17.10;;;;;;;5.77;94.23;94841.88;5095566;28;20496;-80
2022/02/23 02:44:01;;;;;;;22.00;16.13;;;;;;;5.71;94.37;94837.09;5095630;28;20501;-80
2022/02/23 02:46:28;;;;;;;21.27;16.40;;;;;;;5.69;95.08;94836.34;5095784;28;20431;-80
2022/02/23 02:48:56;;;;;;;22.37;16.20;;;;;;;5.73;94.70;94841.25;5095419;28;20447;-80
2022/02/23 02:51:23;;;;;;;25.13;15.53;;;;;;;5.65;94.22;94838.34;5095625;28;20436;-80
2022/02/23 02:53:50;;;;;;;21.33;16.37;;;;;;;5.68;94.90;94842.50;5059641;28;20844;-80
2022/02/23 02:56:18;;;;;;;20.63;15.90;;;;;;;5.60;94.98;94843.84;5095394;28;20436;-80
2022/02/23 02:58:51;;;;;;;25.53;15.13;;;;;;;5.66;94.54;94840.00;5095340;28;20440;-81
2022/02/23 03:01:18;;;;;;;21.53;15.23;;;;;;;5.60;94.69;94841.25;5095670;28;20837;-80
2022/02/23 03:03:45;;;;;;;23.63;16.00;;;;;;;5.51;94.79;94831.44;5095692;28;20448;-81
2022/02/23 03:06:12;;;;;;;19.40;15.17;;;;;;;5.46;93.75;94848.28;5095059;28;20914;-80
2022/02/23 03:08:39;;;;;;;24.07;15.27;;;;;;;5.44;95.40;94843.19;5076363;28;20457;-80
2022/02/23 03:11:06;;;;;;;19.77;14.60;;;;;;;5.45;95.68;94842.25;5095215;28;20444;-80
2022/02/23 03:13:34;;;;;;;24.13;17.40;;;;;;;5.52;95.75;94853.09;5095060;28;20482;-81
2022/02/23 03:16:02;;;;;;;21.77;16.00;;;;;;;5.55;95.20;94856.34;5094679;28;20447;-81
2022/02/23 03:18:28;;;;;;;24.87;17.30;;;;;;;5.58;95.15;94847.50;5094987;28;20450;-80
2022/02/23 03:20:55;;;;;;;24.83;15.83;;;;;;;5.62;94.39;94861.97;5095129;28;20444;-80
2022/02/23 03:23:22;;;;;;;21.57;14.60;;;;;;;5.70;94.34;94861.44;5094942;28;20436;-82
2022/02/23 03:25:49;;;;;;;18.40;14.27;;;;;;;5.51;93.31;94865.28;5059374;28;20450;-81
2022/02/23 03:28:16;;;;;;;17.50;13.77;;;;;;;5.57;93.91;94864.03;5095016;28;20454;-82
2022/02/23 03:30:45;;;;;;;21.00;16.00;;;;;;;5.66;93.69;94867.81;5094473;28;20436;-81
2022/02/23 03:33:12;;;;;;;18.60;14.67;;;;;;;5.63;93.62;94878.41;5094957;28;20523;-80
2022/02/23 03:35:39;;;;;;;16.10;13.67;;;;;;;5.67;93.74;94883.31;5094726;28;20440;-81
2022/02/23 03:38:07;;;;;;;18.57;14.90;;;;;;;5.72;93.18;94880.41;5094671;28;20451;-81
2022/02/23 03:40:35;;;;;;;18.27;14.90;;;;;;;5.67;93.32;94887.69;5094755;28;20466;-81
2022/02/23 03:43:02;;;;;;;26.23;14.20;;;;;;;5.67;93.65;94888.53;5094666;28;20490;-80
2022/02/23 03:45:30;;;;;;;15.53;13.27;;;;;;;5.63;92.76;94881.84;5094502;28;20432;-81
2022/02/23 03:47:58;;;;;;;21.60;14.73;;;;;;;5.63;93.93;94881.03;5094815;28;20446;-81
2022/02/23 03:50:25;;;;;;;21.33;14.40;;;;;;;5.64;93.92;94882.69;5094208;28;20444;-81
2022/02/23 03:52:52;;;;;;;17.20;14.30;;;;;;;5.66;93.22;94881.66;5094332;28;20451;-81
2022/02/23 03:55:19;;;;;;;20.10;15.47;;;;;;;5.68;93.48;94886.75;5094458;28;20440;-80
2022/02/23 03:57:46;;;;;;;18.57;14.40;;;;;;;5.76;93.75;94889.69;5042239;28;20447;-81
2022/02/23 04:00:16;;;;;;;18.90;14.60;;;;;;;5.87;92.88;94888.06;5094413;28;20448;-81
2022/02/23 04:02:44;;;;;;;23.20;14.43;;;;;;;5.97;93.08;94888.28;5094516;28;20450;-81
2022/02/23 04:05:13;;;;;;;25.07;15.30;;;;;;;5.99;92.83;94893.41;5094212;28;20455;-81
2022/02/23 04:07:40;;;;;;;18.93;14.60;;;;;;;5.89;91.07;94896.63;5094239;28;20782;-80
2022/02/23 04:10:08;;;;;;;18.00;13.83;;;;;;;5.95;91.86;94897.16;5093937;28;20428;-81
2022/02/23 04:12:35;;;;;;;22.03;14.43;;;;;;;5.83;91.78;94902.22;5093928;28;20455;-81
2022/02/23 04:15:02;;;;;;;21.30;16.50;;;;;;;5.74;91.46;94902.78;5093932;28;20978;-81
2022/02/23 04:17:29;;;;;;;22.50;16.60;;;;;;;5.78;92.34;94914.72;5094008;28;20843;-81
2022/02/23 04:19:56;;;;;;;15.20;12.77;;;;;;;5.74;92.44;94909.78;5094116;28;20492;-81
2022/02/23 04:22:25;;;;;;;22.67;16.57;;;;;;;5.70;92.01;94914.34;5093699;28;20447;-81
2022/02/23 04:24:51;;;;;;;18.60;15.13;;;;;;;5.63;92.65;94920.06;5058087;28;20440;-81
2022/02/23 04:27:18;;;;;;;19.87;15.17;;;;;;;5.58;93.47;94922.97;5093259;28;20452;-81
2022/02/23 04:29:46;;;;;;;17.73;14.10;;;;;;;5.55;93.02;94924.00;5093355;28;20810;-81
2022/02/23 04:32:13;;;;;;;19.37;14.50;;;;;;;5.50;94.10;94928.69;5058691;28;20459;-81
2022/02/23 04:34:40;;;;;;;16.70;13.67;;;;;;;5.47;93.87;94928.84;5093792;28;20482;-81
2022/02/23 04:37:07;;;;;;;18.27;14.67;;;;;;;5.49;92.96;94929.63;5092505;28;20466;-81
2022/02/23 04:39:35;;;;;;;18.87;14.67;;;;;;;5.51;93.70;94925.13;5081512;28;20456;-80
2022/02/23 04:42:02;;;;;;;19.47;15.40;;;;;;;5.45;92.69;94930.72;5074439;28;20449;-80
2022/02/23 04:44:29;;;;;;;17.27;14.60;;;;;;;5.38;93.69;94937.25;5074125;28;20800;-81
2022/02/23 04:53:40;;;;;;;20.23;14.60;;;;;;;5.26;93.66;94951.06;5073353;28;21309;-80
2022/02/23 04:56:08;;;;;;;17.23;13.70;;;;;;;5.33;94.37;94956.69;5074162;28;20818;-80
2022/02/23 04:58:36;;;;;;;18.77;14.67;;;;;;;5.37;93.93;94959.00;5073850;28;20433;-80
2022/02/23 05:01:04;;;;;;;19.47;14.90;;;;;;;5.41;94.48;94965.69;5073660;28;20462;-80
2022/02/23 05:03:31;;;;;;;16.00;14.17;;;;;;;5.41;93.96;94970.88;5073713;28;20536;-81
2022/02/23 05:05:59;;;;;;;18.37;14.17;;;;;;;5.32;93.47;94970.63;5073811;28;20831;-81
2022/02/23 05:08:26;;;;;;;18.23;14.80;;;;;;;5.31;94.21;94974.16;5055041;28;20786;-82
2022/02/23 05:10:56;;;;;;;21.37;14.60;;;;;;;5.28;93.33;94983.00;5073515;28;20435;-83
2022/02/23 05:13:25;;;;;;;19.63;14.70;;;;;;;5.24;94.36;94979.75;5023220;28;20452;-80
2022/02/23 05:15:53;;;;;;;28.63;17.57;;;;;;;5.27;93.99;94974.38;5022982;28;20495;-81
2022/02/23 05:21:02;;;;;;;20.03;14.67;;;;;;;5.34;93.99;94994.78;5012306;28;20440;-84
2022/02/23 05:23:30;;;;;;;21.10;15.57;;;;;;;5.36;93.70;95006.75;5012615;28;21025;-81
2022/02/23 05:25:57;;;;;;;20.97;14.73;;;;;;;5.30;94.27;95007.16;5011784;28;20444;-86
2022/02/23 05:28:25;;;;;;;18.30;14.83;;;;;;;5.29;93.87;95006.31;5012202;28;20427;-82
2022/02/23 05:30:53;;;;;;;21.40;15.33;;;;;;;5.23;93.01;95021.47;5012182;28;20436;-85
2022/02/23 05:33:20;;;;;;;22.53;15.37;;;;;;;5.19;93.84;95018.22;5011929;28;20981;-84
2022/02/23 05:35:47;;;;;;;22.93;15.90;;;;;;;5.19;93.87;95028.59;5012381;28;20452;-85
2022/02/23 05:38:14;;;;;;;20.20;16.53;;;;;;;5.26;94.52;95034.28;5011682;28;20448;-84
2022/02/23 05:40:41;;;;;;;28.67;16.57;;;;;;;5.29;93.84;95028.91;5011512;28;20554;-85
2022/02/23 05:43:08;;;;;;;19.57;15.83;;;;;;;5.19;93.88;95040.78;5011208;28;20473;-85
2022/02/23 05:45:36;;;;;;;25.53;18.30;;;;;;;5.26;94.17;95045.53;5011270;28;20529;-85
2022/02/23 05:48:04;;;;;;;21.20;15.90;;;;;;;5.20;92.89;95040.72;5012587;28;20515;-83
2022/02/23 05:50:31;;;;;;;24.10;17.83;;;;;;;5.20;93.43;95055.47;5011652;28;20447;-84
2022/02/23 05:52:58;;;;;;;22.00;17.60;;;;;;;5.14;93.51;95045.44;5070651;28;20464;-86
2022/02/23 05:55:25;;;;;;;22.47;15.47;;;;;;;5.06;94.75;95047.69;5073733;28;20522;-85
2022/02/23 05:57:52;;;;;;;17.43;14.73;;;;;;;5.08;93.72;95051.03;5074001;28;20462;-85
2022/02/23 06:00:19;;;;;;;27.10;18.83;;;;;;;5.05;94.05;95057.25;5075482;28;20880;-84
2022/02/23 06:02:48;;;;;;;26.77;17.60;;;;;;;5.05;94.13;95051.22;5038566;28;20458;-86
2022/02/23 06:05:15;;;;;;;20.70;14.40;;;;;;;5.02;94.58;95064.41;5073492;28;20474;-85
2022/02/23 06:07:42;;;;;;;24.60;17.67;;;;;;;5.03;94.68;95074.69;5073529;28;20443;-85
2022/02/23 06:10:10;;;;;;;23.00;15.00;;;;;;;5.01;93.90;95080.94;5073910;28;20436;-86
2022/02/23 06:12:37;;;;;;;24.43;15.10;;;;;;;4.97;94.23;95070.72;5073327;28;20471;-86
2022/02/23 06:15:04;;;;;;;25.40;18.27;;;;;;;4.95;94.22;95075.19;5073813;28;20822;-86
2022/02/23 06:17:32;;;;;;;20.60;16.87;;;;;;;5.07;94.17;95084.00;5074034;28;20452;-84
2022/02/23 06:20:01;;;;;;;21.33;14.80;;;;;;;5.11;94.14;95079.44;5073462;28;20436;-86
2022/02/23 06:22:28;;;;;;;24.13;15.13;;;;;;;5.13;93.87;95087.97;5073665;28;20876;-85
2022/02/23 06:24:55;;;;;;;22.00;15.27;;;;;;;5.10;93.87;95093.38;5073608;28;20453;-85
2022/02/23 06:27:22;;;;;;;21.60;14.90;;;;;;;5.01;94.50;95096.53;5073250;28;20455;-85
2022/02/23 06:29:49;;;;;;;20.67;15.30;;;;;;;5.02;94.40;95108.59;5073368;28;20432;-85
2022/02/23 06:32:16;;;;;;;20.10;16.40;;;;;;;4.97;94.81;95114.09;5022216;28;20943;-86
2022/02/23 06:34:43;;;;;;;21.90;15.87;;;;;;;4.98;95.49;95116.59;5072874;28;20473;-85
2022/02/23 06:37:12;;;;;;;18.30;13.97;;;;;;;5.04;95.10;95122.34;5073170;28;20454;-86
2022/02/23 06:39:41;;;;;;;26.77;18.10;;;;;;;5.07;95.83;95128.19;5073426;28;20421;-85
2022/02/23 06:42:08;;;;;;;22.57;16.47;;;;;;;5.13;95.81;95127.00;5073156;28;20488;-82
2022/02/23 06:44:36;;;;;;;29.93;18.77;;;;;;;5.13;95.57;95127.84;5072799;28;20450;-84
2022/02/23 06:47:03;;;;;;;23.73;16.97;;;;;;;4.99;94.37;95138.22;5073048;28;20483;-84
2022/02/23 06:49:31;;;;;;;24.80;15.80;;;;;;;4.93;94.82;95136.00;5072941;28;20436;-84
2022/02/23 06:52:00;;;;;;;22.10;14.37;;;;;;;4.92;95.34;95144.72;5075728;28;20873;-87
2022/02/23 06:54:30;;;;;;;22.83;16.50;;;;;;;4.92;95.10;95132.56;5076824;28;20543;-86
2022/02/23 06:56:59;;;;;;;22.63;15.13;;;;;;;4.95;96.27;95153.19;5076932;28;20915;-87
2022/02/23 06:59:27;;;;;;;24.43;16.07;;;;;;;5.09;96.60;95149.75;5076929;28;20505;-82
2022/02/23 07:01:54;;;;;;;23.00;15.20;;;;;;;6.07;100.00;95143.78;5077507;28;20450;-90
2022/02/23 07:04:21;;;;;;;18.70;14.50;;;;;;;8.76;100.00;95147.13;5078152;28;20871;-88
2022/02/23 07:06:48;;;;;;;22.73;15.67;;;;;;;8.87;89.53;95161.09;5077601;28;20452;-83
2022/02/23 07:09:15;;;;;;;31.88;20.38;;;;;;;8.55;81.89;95150.38;5075961;28;20434;-82
2022/02/23 07:11:44;;;;;;;26.87;18.17;;;;;;;7.86;80.72;95158.81;5076300;28;20198;-87
2022/02/23 07:14:16;;;;;;;21.83;16.00;;;;;;;7.45;82.90;95159.88;5082990;28;21254;-88
2022/02/23 07:16:42;;;;;;;15.20;11.77;;;;;;;6.88;84.06;95154.19;5098264;28;20546;-87
2022/02/23 07:19:09;;;;;;;18.00;12.70;;;;;;;6.49;86.28;95148.88;5096298;28;20455;-85
2022/02/23 07:21:38;;;;;;;17.47;13.30;;;;;;;6.33;88.04;95149.94;5095739;28;20526;-84
2022/02/23 07:24:05;;;;;;;20.97;14.67;;;;;;;6.32;88.83;95146.50;5096257;28;20459;-87
2022/02/23 07:26:36;;;;;;;17.67;15.50;;;;;;;6.38;91.09;95146.13;5094626;28;20453;-83
2022/02/23 07:29:04;;;;;;;15.63;13.70;;;;;;;6.21;88.80;95134.16;5097169;28;20198;-88
2022/02/23 07:31:31;;;;;;;13.50;11.60;;;;;;;6.13;89.65;95152.06;5095885;28;20436;-81
2022/02/23 07:33:58;;;;;;;17.30;12.40;;;;;;;6.08;89.75;95146.31;5095855;28;20535;-84
2022/02/23 07:36:25;;;;;;;20.70;14.47;;;;;;;5.92;90.33;95148.19;5096673;28;20454;-84
2022/02/23 07:38:53;;;;;;;16.00;12.57;;;;;;;5.89;90.32;95148.34;5096733;28;20519;-85
2022/02/23 07:41:23;;;;;;;16.97;12.93;;;;;;;5.77;90.73;95139.53;5097327;28;20456;-87
2022/02/23 08:00:39;;;;;;;23.50;15.90;;;;;;;6.10;92.83;95149.66;5096351;28;20537;-86
2022/02/23 08:03:07;;;;;;;20.17;13.47;;;;;;;6.14;92.79;95153.75;5099978;28;20464;-84
2022/02/23 08:05:34;;;;;;;18.93;14.27;;;;;;;6.25;93.92;95154.81;5101199;28;20461;-87
2022/02/23 08:08:01;;;;;;;19.57;14.27;;;;;;;6.27;92.00;95159.00;5087079;28;20456;-84
2022/02/23 08:10:28;;;;;;;19.97;14.60;;;;;;;6.21;91.62;95157.63;5077707;28;20453;-85
2022/02/23 08:12:58;;;;;;;31.37;18.70;;;;;;;6.27;91.72;95163.38;5086952;28;20466;-86
2022/02/23 08:22:12;;;;;;;22.83;15.40;;;;;;;6.55;93.03;95158.06;5094407;28;20415;-82
2022/02/23 08:24:42;;;;;;;20.00;14.27;;;;;;;6.72;92.69;95165.63;5075718;28;20452;-90
2022/02/23 08:27:10;;;;;;;15.63;12.23;;;;;;;6.89;90.76;95163.69;5095773;28;20447;-85
2022/02/23 08:29:38;;;;;;;17.10;13.80;;;;;;;7.08;90.00;95171.97;5095213;28;20444;-85
2022/02/23 08:32:08;;;;;;;17.93;13.77;;;;;;;7.14;88.44;95172.38;5094936;28;20965;-85
2022/02/23 08:34:35;;;;;;;21.80;16.50;;;;;;;7.24;88.69;95175.25;5043694;28;20966;-84
2022/02/23 08:37:02;;;;;;;22.33;14.30;;;;;;;7.29;87.46;95174.94;5095192;28;20451;-83
2022/02/23 08:39:32;;;;;;;18.93;14.07;;;;;;;7.48;87.46;95175.31;5094971;28;20455;-84
2022/02/23 08:41:59;;;;;;;24.90;18.43;;;;;;;7.60;85.95;95174.50;5095283;28;20450;-84
2022/02/23 08:44:26;;;;;;;20.10;16.13;;;;;;;7.65;85.02;95166.34;5096703;28;20454;-85
2022/02/23 08:46:55;;;;;;;20.57;13.90;;;;;;;7.59;85.07;95159.78;5095800;28;20448;-85
2022/02/23 08:49:23;;;;;;;19.23;11.90;;;;;;;7.82;83.93;95173.88;5060815;28;20954;-84
2022/02/23 08:51:50;;;;;;;16.40;12.90;;;;;;;7.86;82.63;95174.50;5094618;28;20436;-84
2022/02/23 08:54:18;;;;;;;18.27;12.67;;;;;;;7.90;82.45;95179.38;5054114;28;20452;-85
2022/02/23 08:56:47;;;;;;;17.13;12.27;;;;;;;7.90;82.87;95179.38;5114696;28;20793;-83
2022/02/23 08:59:14;;;;;;;20.27;12.73;;;;;;;7.96;81.93;95175.50;5109546;28;20436;-85
2022/02/23 09:01:43;;;;;;;14.10;11.10;;;;;;;8.07;80.55;95179.03;5094171;28;20945;-84
2022/02/23 09:04:10;;;;;;;15.30;12.33;;;;;;;8.22;81.62;95164.06;5095444;28;20442;-85
2022/02/23 09:06:39;;;;;;;15.87;13.10;;;;;;;8.31;81.49;95178.25;5094589;28;20446;-87
2022/02/23 09:15:35;;;;;;;20.00;11.80;;;;;;;8.87;77.17;95170.72;5051816;28;21046;-84
2022/02/23 09:18:02;;;;;;;23.27;12.67;;;;;;;8.94;76.06;95171.94;5052068;28;21072;-85
2022/02/23 09:20:29;;;;;;;17.63;12.57;;;;;;;8.97;76.26;95179.59;5051988;28;20584;-85
2022/02/23 09:22:56;;;;;;;19.77;11.63;;;;;;;9.06;75.03;95180.69;5052780;28;20465;-84
2022/02/23 09:25:23;;;;;;;18.07;12.40;;;;;;;9.00;76.16;95184.59;5053363;28;20437;-86
2022/02/23 09:27:51;;;;;;;16.53;12.30;;;;;;;9.12;75.24;95181.03;5053299;28;20458;-85
2022/02/23 09:30:18;;;;;;;13.97;9.40;;;;;;;9.21;73.81;95190.81;5052549;28;20546;-86
2022/02/23 09:32:49;;;;;;;17.83;9.70;;;;;;;9.18;73.56;95180.59;5052935;28;20862;-86
2022/02/23 09:35:17;;;;;;;13.00;9.10;;;;;;;9.12;71.15;95181.03;5052451;28;20473;-86
2022/02/23 09:44:54;;;;;;;14.63;9.63;;;;;;;8.74;72.59;95169.97;5032312;28;20967;-85
2022/02/23 09:47:21;;;;;;;11.47;9.67;;;;;;;8.81;73.39;95182.47;5032189;28;20578;-86
2022/02/23 09:49:49;;;;;;;19.77;12.20;;;;;;;8.88;73.38;95180.25;5031288;28;20457;-87
2022/02/23 09:52:17;;;;;;;17.20;11.53;;;;;;;8.93;72.34;95178.13;5030542;28;20478;-86
2022/02/23 09:54:44;;;;;;;13.87;9.50;;;;;;;8.92;72.70;95179.91;5032352;28;20814;-86
2022/02/23 09:57:12;;;;;;;19.23;14.43;;;;;;;9.05;74.23;95174.59;5069376;28;20433;-87
2022/02/23 09:59:39;;;;;;;18.00;11.40;;;;;;;8.94;74.58;95187.63;5075074;28;20449;-85
2022/02/23 10:02:06;;;;;;;27.63;13.77;;;;;;;8.92;75.39;95187.75;5074604;28;20461;-86
2022/02/23 10:04:34;;;;;;;16.77;11.57;;;;;;;8.97;74.46;95187.44;5074455;28;20453;-86
2022/02/23 10:07:06;;;;;;;16.60;12.10;;;;;;;9.06;75.06;95178.06;5074788;28;20464;-87
2022/02/23 10:09:41;;;;;;;17.20;10.20;;;;;;;8.94;73.80;95185.00;5075038;28;20503;-86
2022/02/23 10:12:09;;;;;;;12.20;9.53;;;;;;;8.87;74.46;95179.41;5074166;28;20452;-87
2022/02/23 10:14:36;;;;;;;14.60;12.03;;;;;;;11.87;100.00;95165.16;5075901;28;20942;-93
2022/02/23 10:17:04;;;;;;;24.33;12.60;;;;;;;11.46;98.90;95174.69;5074178;28;21210;-87
2022/02/23 10:19:33;;;;;;;14.20;9.77;;;;;;;11.04;78.27;95181.72;5075857;28;20978;-85
2022/02/23 10:22:03;;;;;;;16.80;10.37;;;;;;;10.84;71.66;95177.25;5074286;28;20456;-87
2022/02/23 10:24:32;;;;;;;17.23;11.20;;;;;;;10.55;71.14;95175.19;5079282;28;20457;-91
2022/02/23 10:27:05;;;;;;;13.63;11.70;;;;;;;10.14;71.68;95172.38;5079187;28;20543;-87
2022/02/23 10:29:37;;;;;;;22.03;13.83;;;;;;;9.85;72.16;95174.66;5079853;28;20463;-86
2022/02/23 10:32:09;;;;;;;19.17;13.40;;;;;;;9.45;73.45;95175.06;5079108;28;20463;-90
2022/02/23 10:34:44;;;;;;;19.17;11.30;;;;;;;9.30;75.10;95173.63;5079589;28;20473;-89
2022/02/23 10:37:15;;;;;;;14.87;11.07;;;;;;;9.10;75.01;95180.31;5082278;28;20455;-87
2022/02/23 10:39:45;;;;;;;12.40;9.93;;;;;;;9.00;73.98;95174.13;5079304;28;20470;-85
2022/02/23 10:42:13;;;;;;;15.60;11.77;;;;;;;8.98;75.16;95171.63;5078383;28;20451;-87
2022/02/23 10:44:42;;;;;;;12.57;10.10;;;;;;;8.75;73.95;95164.63;5080715;28;20527;-86
2022/02/23 10:47:14;;;;;;;14.57;10.80;;;;;;;8.78;74.28;95167.00;5081458;28;20453;-87
2022/02/23 10:49:41;;;;;;;16.07;9.50;;;;;;;8.83;75.06;95171.91;5081299;28;20425;-86
2022/02/23 10:52:10;;;;;;;12.90;10.20;;;;;;;8.97;75.39;95172.56;5078839;28;20468;-86
2022/02/23 10:54:38;;;;;;;28.60;14.03;;;;;;;9.05;74.84;95166.75;5077929;28;20461;-85
2022/02/23 10:57:20;;;;;;;12.83;10.17;;;;;;;9.13;74.22;95167.00;5077576;28;20487;-86
2022/02/23 11:03:16;;;;;;;22.67;16.10;;;;;;;9.22;75.74;95161.06;5078301;28;20442;-86
2022/02/23 11:05:45;;;;;;;29.90;17.77;;;;;;;9.20;72.63;95160.34;5077690;28;20440;-85
2022/02/23 11:08:14;;;;;;;26.47;17.20;;;;;;;9.17;72.72;95165.00;5078215;28;20487;-85
2022/02/23 11:10:45;;;;;;;21.33;12.97;;;;;;;9.11;73.10;95166.28;5078470;28;20795;-86
2022/02/23 11:13:15;;;;;;;11.67;9.13;;;;;;;8.96;71.83;95168.28;5078156;28;20449;-86
2022/02/23 11:15:44;;;;;;;10.60;9.43;;;;;;;8.88;72.47;95159.31;5070233;28;20508;-82
2022/02/23 11:18:13;;;;;;;11.87;9.53;;;;;;;8.78;72.21;95167.00;5022378;28;20441;-86
2022/02/23 11:20:42;;;;;;;17.13;11.50;;;;;;;8.74;72.88;95157.72;5067183;28;20886;-86
2022/02/23 11:23:16;;;;;;;17.30;11.70;;;;;;;8.73;73.40;95157.81;5079031;28;20453;-87
2022/02/23 11:25:47;;;;;;;16.20;10.80;;;;;;;8.67;71.83;95153.84;5079763;28;20535;-87
2022/02/23 11:28:20;;;;;;;20.13;13.10;;;;;;;8.73;72.15;95158.66;5078766;28;20447;-88
2022/02/23 11:30:48;;;;;;;22.80;14.30;;;;;;;8.86;72.85;95156.81;5082100;28;20452;-85
2022/02/23 11:33:15;;;;;;;19.47;13.63;;;;;;;8.96;72.63;95160.44;5084963;28;20445;-87
2022/02/23 11:35:44;;;;;;;18.77;12.57;;;;;;;9.10;71.50;95159.38;5071494;28;20581;-87
2022/02/23 11:38:16;;;;;;;14.30;10.73;;;;;;;10.60;100.00;95132.00;5061845;28;20507;-91
2022/02/23 11:40:54;;;;;;;17.27;9.33;;;;;;;10.53;71.78;95164.00;5059525;28;20450;-85
2022/02/23 11:43:29;;;;;;;19.40;11.17;;;;;;;10.58;68.46;95165.41;5066293;28;21032;-85
2022/02/23 11:45:58;;;;;;;19.20;10.03;;;;;;;10.57;67.25;95158.50;5077101;28;20428;-87
2022/02/23 11:48:25;;;;;;;17.60;11.00;;;;;;;10.60;67.50;95159.06;5091131;28;20462;-87
2022/02/23 11:51:02;;;;;;;20.83;11.67;;;;;;;10.52;66.42;95154.44;5098597;28;20440;-86
2022/02/23 11:53:39;;;;;;;43.77;24.03;;;;;;;10.56;66.95;95152.41;5098940;28;20480;-90
2022/02/23 11:56:15;;;;;;;14.93;9.53;;;;;;;10.45;66.79;95155.06;5100624;28;20540;-90
2022/02/23 11:58:47;;;;;;;20.10;11.87;;;;;;;10.25;66.83;95159.28;5090803;28;20446;-90
2022/02/23 12:01:16;;;;;;;10.40;7.80;;;;;;;10.02;65.92;95158.41;5083231;28;20455;-91
2022/02/23 12:03:44;;;;;;;9.83;8.73;;;;;;;9.84;66.96;95160.72;5080445;28;20453;-89
2022/02/23 12:06:12;;;;;;;21.03;15.60;;;;;;;9.82;68.87;95157.34;5086871;28;20462;-87
2022/02/23 12:08:44;;;;;;;14.47;11.17;;;;;;;9.78;68.92;95158.53;5078007;28;20493;-90
2022/02/23 12:11:41;;;;;;;15.80;12.23;;;;;;;9.73;69.28;95167.72;5078835;28;20455;-90
2022/02/23 12:14:09;;;;;;;21.90;14.57;;;;;;;9.60;68.49;95168.66;5079601;28;20835;-92
2022/02/23 12:16:50;;;;;;;23.63;11.43;;;;;;;9.49;69.10;95163.41;5080384;28;20476;-93
2022/02/23 12:19:18;;;;;;;14.50;9.50;;;;;;;9.32;67.75;95153.38;5094871;28;20444;-89